KDRO/DRO METAR and TAF weather

Enter ICAO airport designator
Station Type Date Time Source
KDRO METAR 2018/12/12 23:53 UTC NOAA

KDRO 122353Z AUTO 28015G25KT 10SM BKN095 03/M04 A2983 RMK AO2 PK WND 28029/2335 SLP129 T00281039 10061 20017 56016


Station Type Date Time Source
KDRO Decoded METAR 2018/12/12 23:53 UTC NOAA

DURANGO-LA PLATA COUNTY AIRPORT , CO, United States (KDRO) 37-09N 107-46W 2035M
Dec 12, 2018 - 06:53 PM EST / 2018.12.12 2353 UTC
Wind: from the W (280 degrees) at 17 MPH (15 KT) gusting to 29 MPH (25 KT):0
Visibility: 10 mile(s):0
Sky conditions: mostly cloudy
Temperature: 37.0 F (2.8 C)
Dew Point: 25.0 F (-3.9 C)
Relative Humidity: 61%
Pressure (altimeter): 29.83 in. Hg (1010 hPa)
Pressure tendency: 0.05 inches (1.6 hPa) lower than three hours ago
ob: KDRO 122353Z AUTO 28015G25KT 10SM BKN095 03/M04 A2983 RMK AO2 PK WND 28029/2335 SLP129 T00281039 10061 20017 56016
cycle: 0

Station Type Date Time Source
KDRO TAF 2018/12/12 22:09 UTC NOAA

TAF
AMD KDRO 122207Z 1222/1318 27017G25KT P6SM SCT100
FM130100 30015G30KT P6SM VCSH FEW070 BKN130
FM130400 32014KT P6SM FEW090 FEW200 WS020/35040KT
FM131100 32006KT P6SM SKC


Example: see airport list